Time;durP1;ratioP1;P1;durP2;ratioP2;P2;SDS_P1;SDS_P2;PMS_P1;PMS_P2;Temp;Humidity;BMP_temperature;BMP_pressure;BME280_temperature;BME280_humidity;BME280_pressure;Samples;Min_cycle;Max_cycle;Signal;HPM_P1;HPM_P2
2022/04/22 00:00:36;;;;;;;9.37;4.67;;;5.30;99.60;;;;;;5105421;28;20266;-78
2022/04/22 00:03:03;;;;;;;10.03;4.93;;;5.30;99.80;;;;;;5102178;28;20225;-78
2022/04/22 00:05:30;;;;;;;6.87;4.60;;;5.30;99.90;;;;;;5103020;28;20225;-78
2022/04/22 00:07:57;;;;;;;9.40;4.70;;;5.20;99.80;;;;;;5106792;28;20224;-79
2022/04/22 00:10:23;;;;;;;7.93;4.93;;;5.20;99.90;;;;;;5097345;28;20229;-80
2022/04/22 00:12:50;;;;;;;11.20;4.70;;;5.20;99.90;;;;;;5103476;28;20355;-79
2022/04/22 00:15:20;;;;;;;7.90;4.30;;;5.20;99.90;;;;;;5102936;27;20233;-79
2022/04/22 00:17:48;;;;;;;7.93;4.47;;;5.10;99.90;;;;;;5104855;28;20701;-79
2022/04/22 00:20:14;;;;;;;12.00;4.87;;;5.20;99.90;;;;;;5103835;27;20245;-79
2022/04/22 00:22:42;;;;;;;6.30;4.40;;;5.10;99.90;;;;;;5106673;28;20226;-80
2022/04/22 00:25:11;;;;;;;9.27;4.60;;;5.10;99.90;;;;;;5102051;28;20744;-80
2022/04/22 00:27:38;;;;;;;5.73;3.93;;;5.10;99.90;;;;;;5107118;28;20234;-80
2022/04/22 00:30:07;;;;;;;7.67;4.00;;;5.10;99.90;;;;;;5104984;28;20286;-80
2022/04/22 00:32:35;;;;;;;6.67;4.30;;;5.10;99.90;;;;;;5099920;28;20305;-80
2022/04/22 00:35:05;;;;;;;8.57;4.37;;;5.10;99.90;;;;;;5108660;28;20222;-80
2022/04/22 00:37:32;;;;;;;8.97;4.20;;;5.00;99.90;;;;;;5103675;28;20222;-79
2022/04/22 00:39:59;;;;;;;8.93;4.30;;;5.00;99.90;;;;;;5107481;28;20225;-80
2022/04/22 00:42:28;;;;;;;6.83;4.00;;;5.00;99.90;;;;;;5107424;28;20358;-78
2022/04/22 00:44:56;;;;;;;6.47;3.70;;;5.00;99.90;;;;;;5105346;28;20216;-79
2022/04/22 00:47:23;;;;;;;6.93;3.63;;;5.00;99.90;;;;;;5103250;27;20281;-79
2022/04/22 00:49:51;;;;;;;9.50;4.53;;;5.00;99.90;;;;;;5105105;28;20220;-78
2022/04/22 00:52:19;;;;;;;8.10;4.33;;;5.00;99.90;;;;;;5104558;28;20232;-78
2022/04/22 00:54:46;;;;;;;5.57;3.27;;;5.00;99.90;;;;;;5100488;28;20222;-78
2022/04/22 00:57:14;;;;;;;7.63;4.00;;;5.10;99.90;;;;;;5100766;28;20240;-78
2022/04/22 00:59:41;;;;;;;6.83;4.10;;;5.00;99.90;;;;;;5097324;28;20248;-78
2022/04/22 01:02:08;;;;;;;5.43;3.80;;;5.00;99.90;;;;;;5098538;28;20262;-77
2022/04/22 01:10:07;;;;;;;7.67;4.17;;;5.00;99.90;;;;;;5104181;28;20339;-79
2022/04/22 01:12:34;;;;;;;8.23;4.30;;;5.00;99.90;;;;;;5104211;28;20240;-79
2022/04/22 01:15:01;;;;;;;8.27;4.33;;;5.00;99.90;;;;;;5099696;28;20233;-78
2022/04/22 01:17:29;;;;;;;9.03;3.90;;;4.90;99.90;;;;;;5101834;28;20236;-78
2022/04/22 01:19:56;;;;;;;7.27;3.73;;;4.90;99.90;;;;;;5108152;28;20226;-78
2022/04/22 01:22:27;;;;;;;6.33;3.83;;;4.90;99.90;;;;;;5098643;27;20323;-79
2022/04/22 01:24:57;;;;;;;5.17;3.57;;;4.90;99.90;;;;;;5104084;28;20765;-79
2022/04/22 01:27:26;;;;;;;7.33;4.07;;;4.90;99.90;;;;;;5105992;27;20264;-79
2022/04/22 01:29:53;;;;;;;6.33;3.90;;;4.90;99.90;;;;;;5106829;28;20224;-79
2022/04/22 01:32:20;;;;;;;6.47;3.97;;;4.90;99.90;;;;;;5101572;28;20734;-79
2022/04/22 01:34:47;;;;;;;8.23;3.90;;;4.90;99.90;;;;;;5105803;28;20232;-79
2022/04/22 01:37:14;;;;;;;5.33;3.77;;;4.90;99.90;;;;;;5107524;28;20223;-79
2022/04/22 01:39:42;;;;;;;6.57;3.37;;;4.80;99.90;;;;;;5101027;27;20299;-79
2022/04/22 01:42:09;;;;;;;6.90;3.40;;;4.80;99.90;;;;;;5105456;28;20235;-78
2022/04/22 01:44:36;;;;;;;7.73;3.83;;;4.80;99.90;;;;;;5109257;28;20608;-78
2022/04/22 01:47:04;;;;;;;7.53;3.47;;;4.80;99.90;;;;;;5104003;28;20312;-79
2022/04/22 01:49:30;;;;;;;6.67;3.50;;;4.80;99.90;;;;;;5101238;27;20696;-82
2022/04/22 01:51:57;;;;;;;8.53;3.93;;;4.80;99.90;;;;;;5104304;28;20220;-81
2022/04/22 01:54:24;;;;;;;7.40;4.10;;;4.80;99.90;;;;;;5098532;28;20309;-82
2022/04/22 01:56:52;;;;;;;6.73;3.93;;;4.80;99.90;;;;;;5104960;28;20229;-81
2022/04/22 01:59:19;;;;;;;8.00;4.30;;;4.70;99.90;;;;;;5105126;28;20232;-81
2022/04/22 02:01:45;;;;;;;8.87;4.53;;;4.70;99.90;;;;;;5104437;27;20320;-81
2022/04/22 02:04:12;;;;;;;6.67;4.30;;;4.70;99.90;;;;;;5093760;28;20240;-81
2022/04/22 02:06:39;;;;;;;7.90;4.40;;;4.70;99.90;;;;;;5102465;27;20266;-81
2022/04/22 02:09:05;;;;;;;8.83;4.90;;;4.70;99.90;;;;;;5099733;28;20320;-81
2022/04/22 02:11:32;;;;;;;7.50;4.50;;;4.70;99.90;;;;;;5104819;27;20233;-81
2022/04/22 02:14:00;;;;;;;7.77;4.50;;;4.60;99.90;;;;;;5107374;27;20247;-78
2022/04/22 02:16:28;;;;;;;7.00;3.87;;;4.60;99.90;;;;;;5102468;28;20316;-79
2022/04/22 02:18:55;;;;;;;9.87;4.37;;;4.60;99.90;;;;;;5093444;28;20220;-78
2022/04/22 02:21:22;;;;;;;8.50;4.10;;;4.60;99.90;;;;;;5103249;27;20232;-79
2022/04/22 02:23:49;;;;;;;7.23;4.20;;;4.60;99.90;;;;;;5105500;28;20723;-82
2022/04/22 02:26:16;;;;;;;7.90;4.00;;;4.60;99.90;;;;;;5108327;27;20228;-81
2022/04/22 02:28:42;;;;;;;8.30;4.30;;;4.60;99.90;;;;;;5100969;28;20231;-81
2022/04/22 02:31:11;;;;;;;9.10;4.33;;;4.50;99.90;;;;;;5102141;28;20310;-81
2022/04/22 02:33:40;;;;;;;9.73;4.40;;;4.50;99.90;;;;;;5104385;27;20260;-82
2022/04/22 02:36:08;;;;;;;8.47;3.67;;;4.50;99.90;;;;;;5106801;28;20237;-81
2022/04/22 02:38:35;;;;;;;8.73;3.83;;;4.50;99.90;;;;;;5099816;28;20228;-80
2022/04/22 02:46:33;;;;;;;6.63;3.37;;;4.50;99.90;;;;;;5099938;28;20227;-82
2022/04/22 02:49:00;;;;;;;7.10;3.90;;;4.50;99.90;;;;;;5102592;28;20230;-81
2022/04/22 02:51:28;;;;;;;6.67;3.50;;;4.50;99.90;;;;;;5102663;27;20244;-81
2022/04/22 02:53:55;;;;;;;6.60;3.40;;;4.50;99.90;;;;;;5105564;28;20242;-82
2022/04/22 02:56:23;;;;;;;5.80;3.40;;;4.50;99.90;;;;;;5100491;28;21103;-83
2022/04/22 02:58:50;;;;;;;6.53;3.20;;;4.50;99.90;;;;;;5103357;28;20228;-81
2022/04/22 03:01:17;;;;;;;8.20;3.93;;;4.50;99.90;;;;;;5102722;28;20230;-82
2022/04/22 03:03:46;;;;;;;9.70;3.53;;;4.50;99.90;;;;;;5103209;27;20316;-80
2022/04/22 03:06:13;;;;;;;10.03;3.80;;;4.50;99.90;;;;;;5101840;28;20708;-81
2022/04/22 03:08:40;;;;;;;8.73;3.50;;;4.50;99.90;;;;;;5119384;27;20229;-81
2022/04/22 03:11:06;;;;;;;5.73;3.70;;;4.50;99.90;;;;;;5105204;28;20222;-81
2022/04/22 03:13:33;;;;;;;5.57;3.40;;;4.50;99.90;;;;;;5103667;28;20236;-81
2022/04/22 03:16:02;;;;;;;5.30;3.20;;;4.50;99.90;;;;;;5105016;28;20255;-80
2022/04/22 03:18:29;;;;;;;5.33;3.33;;;4.50;99.90;;;;;;5105081;27;20236;-82
2022/04/22 03:20:58;;;;;;;7.17;3.67;;;4.50;99.90;;;;;;5093053;28;20221;-82
2022/04/22 03:23:25;;;;;;;7.87;3.97;;;4.50;99.90;;;;;;5105350;27;20225;-82
2022/04/22 03:25:54;;;;;;;6.57;3.47;;;4.40;99.90;;;;;;5122421;27;20225;-82
2022/04/22 03:28:23;;;;;;;6.77;3.43;;;4.40;99.90;;;;;;5102178;28;20239;-82
2022/04/22 03:30:50;;;;;;;5.37;3.30;;;4.40;99.90;;;;;;5097503;28;20251;-81
2022/04/22 03:33:18;;;;;;;8.33;3.80;;;4.40;99.90;;;;;;5101748;28;20869;-81
2022/04/22 03:35:45;;;;;;;8.17;3.67;;;4.40;99.90;;;;;;5105203;28;20238;-81
2022/04/22 03:38:14;;;;;;;8.80;4.00;;;4.40;99.90;;;;;;5100267;28;20235;-82
2022/04/22 03:40:41;;;;;;;5.87;3.70;;;4.40;99.90;;;;;;5097367;27;20262;-81
2022/04/22 03:43:08;;;;;;;4.73;3.20;;;4.40;99.90;;;;;;5092496;27;20298;-80
2022/04/22 03:45:34;;;;;;;10.17;3.83;;;4.30;99.90;;;;;;5097954;27;20235;-80
2022/04/22 03:48:01;;;;;;;7.43;4.00;;;4.40;99.90;;;;;;5101338;28;20226;-80
2022/04/22 03:50:29;;;;;;;10.97;4.50;;;4.40;99.90;;;;;;5099924;28;20312;-81
2022/04/22 03:52:55;;;;;;;7.87;4.87;;;4.40;99.90;;;;;;5098057;28;20229;-81
2022/04/22 03:55:24;;;;;;;6.17;3.93;;;4.40;99.90;;;;;;5098966;27;20225;-81
2022/04/22 04:00:36;;;;;;;6.97;4.23;;;4.30;99.90;;;;;;5099364;28;20223;-81
2022/04/22 04:03:03;;;;;;;7.80;4.60;;;4.40;99.90;;;;;;5097367;28;20221;-80
2022/04/22 04:05:31;;;;;;;6.57;3.93;;;4.40;99.90;;;;;;5099606;28;20234;-81
2022/04/22 04:07:57;;;;;;;9.07;4.00;;;4.40;99.90;;;;;;5098375;28;20231;-81
2022/04/22 04:16:00;;;;;;;7.97;4.30;;;4.40;99.90;;;;;;5103032;28;20600;-82
2022/04/22 04:18:30;;;;;;;7.00;4.27;;;4.30;99.90;;;;;;5099470;28;20949;-82
2022/04/22 04:23:40;;;;;;;10.43;4.90;;;4.40;99.90;;;;;;5098698;28;20221;-80
2022/04/22 04:26:09;;;;;;;9.53;5.17;;;4.40;99.90;;;;;;5098728;28;20341;-80
2022/04/22 04:28:36;;;;;;;10.00;5.63;;;4.40;99.90;;;;;;5102965;27;20897;-80
2022/04/22 04:31:04;;;;;;;8.93;5.07;;;4.40;99.90;;;;;;5104515;27;20220;-79
2022/04/22 04:33:31;;;;;;;16.47;5.57;;;4.40;99.90;;;;;;5102473;28;20229;-81
2022/04/22 04:35:58;;;;;;;9.90;5.07;;;4.40;99.90;;;;;;5098642;28;20229;-80
2022/04/22 04:38:26;;;;;;;10.67;5.10;;;4.50;99.90;;;;;;5105537;28;20745;-79
2022/04/22 04:40:53;;;;;;;9.60;4.90;;;4.50;99.90;;;;;;5122366;27;20236;-80
2022/04/22 04:43:22;;;;;;;11.30;5.40;;;4.50;99.90;;;;;;5101057;28;20235;-79
2022/04/22 04:45:50;;;;;;;10.27;5.27;;;4.50;99.90;;;;;;5099951;28;20220;-81
2022/04/22 04:48:17;;;;;;;10.40;5.17;;;4.60;99.90;;;;;;5097896;28;21845;-79
2022/04/22 04:50:45;;;;;;;9.60;5.67;;;4.60;99.90;;;;;;5095116;27;20860;-79
2022/04/22 04:53:13;;;;;;;9.43;5.23;;;4.70;99.90;;;;;;5100712;28;20228;-79
2022/04/22 04:55:40;;;;;;;10.07;5.37;;;4.80;99.90;;;;;;5101429;28;20239;-82
2022/04/22 04:58:07;;;;;;;11.70;5.27;;;4.80;99.90;;;;;;5095901;28;20838;-79
2022/04/22 05:00:36;;;;;;;9.67;5.20;;;4.90;99.90;;;;;;5096317;28;20233;-82
2022/04/22 05:03:03;;;;;;;9.00;4.97;;;4.90;99.90;;;;;;5112634;28;20228;-79
2022/04/22 05:05:30;;;;;;;8.70;5.47;;;5.00;99.90;;;;;;5099494;28;20236;-79
2022/04/22 05:07:59;;;;;;;8.50;5.03;;;5.10;99.90;;;;;;5101483;28;20240;-84
2022/04/22 05:10:27;;;;;;;8.73;5.10;;;5.10;99.90;;;;;;5100803;28;20224;-79
2022/04/22 05:12:54;;;;;;;9.67;5.40;;;5.20;99.90;;;;;;5097063;28;20230;-80
2022/04/22 05:15:23;;;;;;;9.53;5.30;;;5.30;99.90;;;;;;5093833;28;20225;-80
2022/04/22 05:17:52;;;;;;;10.33;5.47;;;5.30;99.90;;;;;;5101823;28;20918;-79
2022/04/22 05:20:20;;;;;;;10.67;5.20;;;5.40;99.90;;;;;;5101615;28;20236;-79
2022/04/22 05:22:48;;;;;;;10.60;5.23;;;5.50;99.90;;;;;;5099555;28;20289;-80
2022/04/22 05:25:16;;;;;;;10.70;5.03;;;5.60;99.90;;;;;;5097499;28;20224;-80
2022/04/22 05:27:43;;;;;;;6.70;4.80;;;5.60;99.90;;;;;;5105747;28;20230;-79
2022/04/22 05:32:57;;;;;;;7.77;4.80;;;5.70;99.90;;;;;;5108229;28;20225;-80
2022/04/22 05:35:26;;;;;;;9.77;4.83;;;5.80;99.90;;;;;;5101479;28;20900;-79
2022/04/22 05:37:54;;;;;;;9.13;4.70;;;5.80;99.90;;;;;;5104906;28;20252;-80
2022/04/22 05:40:22;;;;;;;7.33;4.90;;;5.90;99.90;;;;;;5100899;28;20230;-80
2022/04/22 05:42:51;;;;;;;7.87;4.70;;;5.90;99.90;;;;;;5107037;28;20233;-80
2022/04/22 05:45:19;;;;;;;11.03;5.00;;;6.00;99.90;;;;;;5104932;28;20221;-79
2022/04/22 05:47:46;;;;;;;8.93;5.07;;;6.00;99.90;;;;;;5100206;28;20352;-80
2022/04/22 05:50:15;;;;;;;8.23;4.70;;;6.10;99.90;;;;;;5102617;28;20236;-81
2022/04/22 05:52:43;;;;;;;9.00;4.43;;;6.10;99.90;;;;;;5102675;28;20233;-80
2022/04/22 05:55:12;;;;;;;9.27;4.87;;;6.20;99.90;;;;;;5104096;28;20337;-80
2022/04/22 05:57:40;;;;;;;7.93;4.30;;;6.20;99.90;;;;;;5105312;28;20236;-80
2022/04/22 06:00:09;;;;;;;7.97;4.53;;;6.20;99.90;;;;;;5100796;28;20616;-80
2022/04/22 06:02:42;;;;;;;8.90;4.23;;;6.40;99.90;;;;;;5104281;28;20345;-80
2022/04/22 06:05:09;;;;;;;8.63;4.43;;;6.40;99.90;;;;;;5108307;27;20275;-80
2022/04/22 06:07:38;;;;;;;7.33;4.53;;;6.50;99.90;;;;;;5108633;28;20226;-80
2022/04/22 06:12:52;;;;;;;9.47;4.43;;;6.70;99.90;;;;;;5107303;28;20218;-80
2022/04/22 06:15:19;;;;;;;5.87;3.70;;;6.70;99.90;;;;;;5107813;28;20236;-79
2022/04/22 06:17:47;;;;;;;9.43;4.13;;;6.80;99.90;;;;;;5102497;28;20238;-79
2022/04/22 06:20:14;;;;;;;7.80;4.10;;;6.90;99.90;;;;;;5109658;28;20282;-80
2022/04/22 06:22:42;;;;;;;8.17;4.33;;;7.10;99.90;;;;;;5108162;28;20252;-80
2022/04/22 06:25:10;;;;;;;6.67;4.00;;;7.20;99.90;;;;;;5105003;28;20300;-79
2022/04/22 06:27:38;;;;;;;6.17;3.47;;;7.50;99.90;;;;;;5109735;28;20222;-80
2022/04/22 06:30:08;;;;;;;6.67;3.63;;;7.70;99.90;;;;;;5107252;28;20721;-80
2022/04/22 06:32:35;;;;;;;6.33;3.30;;;7.90;99.90;;;;;;5102098;28;20226;-80
2022/04/22 06:35:03;;;;;;;6.17;3.37;;;8.10;99.90;;;;;;5108157;28;20225;-81
2022/04/22 06:37:35;;;;;;;8.80;3.60;;;8.20;99.90;;;;;;5109013;27;20227;-81
2022/04/22 06:45:48;;;;;;;5.13;3.20;;;8.70;99.90;;;;;;5076175;28;20277;-81
2022/04/22 06:48:18;;;;;;;6.33;3.23;;;8.80;99.90;;;;;;5095474;27;20233;-81
2022/04/22 06:50:47;;;;;;;6.83;3.50;;;9.00;99.80;;;;;;5109392;28;20233;-80
2022/04/22 06:53:16;;;;;;;6.50;3.47;;;9.00;99.70;;;;;;5106426;28;20230;-80
2022/04/22 06:55:45;;;;;;;6.53;3.30;;;9.10;99.50;;;;;;5104745;27;20230;-80
2022/04/22 06:58:13;;;;;;;5.13;2.90;;;9.20;99.30;;;;;;5104020;28;20239;-81
2022/04/22 07:00:41;;;;;;;6.10;2.83;;;9.30;99.10;;;;;;5104582;28;20373;-81
2022/04/22 07:03:09;;;;;;;7.43;3.20;;;9.30;99.00;;;;;;5107475;27;20234;-80
2022/04/22 07:05:37;;;;;;;6.87;3.07;;;9.30;98.90;;;;;;5102175;28;20247;-81
2022/04/22 07:08:06;;;;;;;4.87;2.63;;;9.30;98.60;;;;;;5106148;28;20694;-80
2022/04/22 07:10:34;;;;;;;8.00;3.30;;;9.40;98.50;;;;;;5108233;27;20226;-80
2022/04/22 07:13:03;;;;;;;4.77;2.90;;;9.40;98.90;;;;;;5108792;28;20232;-81
2022/04/22 07:15:30;;;;;;;7.07;3.07;;;9.40;98.70;;;;;;5104286;27;20575;-80
2022/04/22 07:17:57;;;;;;;6.80;2.83;;;9.50;98.90;;;;;;5108838;28;20294;-81
2022/04/22 07:20:25;;;;;;;6.33;2.90;;;9.60;98.70;;;;;;5104411;28;20243;-81
2022/04/22 07:22:53;;;;;;;6.40;3.10;;;9.60;98.60;;;;;;5107179;28;20283;-81
2022/04/22 07:25:21;;;;;;;5.83;3.00;;;9.80;99.20;;;;;;5105529;28;20232;-81
2022/04/22 07:27:49;;;;;;;10.20;2.93;;;10.00;99.30;;;;;;5108752;28;20231;-81
2022/04/22 07:30:19;;;;;;;4.17;2.60;;;10.30;99.60;;;;;;5106648;27;20241;-81
2022/04/22 07:32:48;;;;;;;7.77;3.17;;;10.70;99.80;;;;;;5108375;28;20482;-81
2022/04/22 07:35:16;;;;;;;4.83;2.70;;;11.20;98.80;;;;;;5107521;28;20271;-81
2022/04/22 07:37:44;;;;;;;5.87;2.80;;;11.70;98.30;;;;;;5106416;28;20228;-81
2022/04/22 07:40:13;;;;;;;8.20;2.77;;;12.20;97.30;;;;;;5105512;28;20228;-80
2022/04/22 07:42:42;;;;;;;5.33;3.23;;;12.70;96.70;;;;;;5106460;28;20241;-81
2022/04/22 07:47:56;;;;;;;6.03;2.90;;;13.40;96.30;;;;;;5107183;28;20379;-81
2022/04/22 07:50:24;;;;;;;5.17;3.00;;;14.00;95.50;;;;;;5108304;27;20283;-81
2022/04/22 07:52:51;;;;;;;4.67;2.70;;;14.40;94.90;;;;;;5106913;27;20267;-81
2022/04/22 07:55:18;;;;;;;5.67;2.87;;;14.80;94.80;;;;;;5100995;28;20236;-81
2022/04/22 07:57:46;;;;;;;6.93;2.70;;;15.20;94.10;;;;;;5106671;28;20221;-81
2022/04/22 08:00:13;;;;;;;6.60;2.37;;;15.60;93.30;;;;;;5106553;27;20229;-81
2022/04/22 08:02:42;;;;;;;5.60;2.67;;;16.00;92.00;;;;;;5106522;28;20237;-81
2022/04/22 08:05:11;;;;;;;5.17;2.50;;;16.10;90.70;;;;;;5105201;28;20257;-81
2022/04/22 08:07:39;;;;;;;5.87;2.60;;;16.30;90.60;;;;;;5105912;27;20302;-81
2022/04/22 08:10:06;;;;;;;4.47;3.00;;;16.40;90.70;;;;;;5105244;28;20229;-81
2022/04/22 08:12:33;;;;;;;7.07;2.80;;;16.50;89.30;;;;;;5104499;28;20221;-81
2022/04/22 08:15:00;;;;;;;4.07;2.57;;;16.60;88.80;;;;;;5105295;28;20229;-81
2022/04/22 08:17:32;;;;;;;6.57;2.77;;;16.60;87.80;;;;;;5099322;28;20543;-81
2022/04/22 08:19:58;;;;;;;6.13;3.17;;;16.80;89.40;;;;;;5109381;28;20221;-81
2022/04/22 08:22:27;;;;;;;5.33;2.40;;;17.00;86.90;;;;;;5110509;28;20237;-82
2022/04/22 08:24:54;;;;;;;4.28;2.47;;;17.10;87.30;;;;;;5099952;28;20754;-81
2022/04/22 08:27:21;;;;;;;7.07;2.60;;;17.30;88.10;;;;;;5098022;28;20317;-81
2022/04/22 08:29:48;;;;;;;5.35;2.72;;;17.60;87.90;;;;;;5104290;28;20222;-81
2022/04/22 08:32:14;;;;;;;6.83;3.00;;;17.90;85.80;;;;;;5095599;28;21041;-81
2022/04/22 08:34:41;;;;;;;6.33;3.00;;;18.10;83.50;;;;;;5104161;27;20218;-79
2022/04/22 08:37:08;;;;;;;4.40;2.60;;;18.10;83.50;;;;;;5104793;28;20249;-78
2022/04/22 08:39:36;;;;;;;4.37;3.00;;;18.20;83.10;;;;;;5104553;28;20236;-78
2022/04/22 08:42:04;;;;;;;6.70;2.73;;;18.30;81.70;;;;;;5102901;28;20959;-78
2022/04/22 08:44:31;;;;;;;6.90;2.80;;;18.40;82.70;;;;;;5104735;28;20229;-78
2022/04/22 08:50:02;;;;;;;7.22;2.90;;;18.80;81.70;;;;;;5108041;27;20297;-78
2022/04/22 08:52:32;;;;;;;5.15;2.75;;;18.90;81.40;;;;;;5099502;28;20725;-78
2022/04/22 08:55:02;;;;;;;9.18;2.90;;;19.00;78.40;;;;;;5099335;28;20214;-79
2022/04/22 08:57:29;;;;;;;8.85;3.28;;;19.00;77.50;;;;;;5104865;28;20229;-78
2022/04/22 09:00:00;;;;;;;6.85;2.92;;;18.90;77.80;;;;;;5105112;28;20225;-78
2022/04/22 09:02:28;;;;;;;5.03;2.67;;;18.80;77.30;;;;;;5094318;28;20278;-78
2022/04/22 09:04:56;;;;;;;6.63;3.05;;;18.70;78.90;;;;;;5099090;28;20668;-78
2022/04/22 09:07:26;;;;;;;5.03;2.97;;;18.70;78.50;;;;;;5103375;28;20222;-78
2022/04/22 09:09:53;;;;;;;5.07;3.10;;;18.60;76.20;;;;;;5101327;28;20233;-78
2022/04/22 09:12:24;;;;;;;6.13;3.03;;;18.60;77.50;;;;;;5103445;28;20253;-78
2022/04/22 09:14:52;;;;;;;5.45;2.97;;;18.60;78.90;;;;;;5103104;28;20230;-78
2022/04/22 09:17:24;;;;;;;5.63;3.05;;;18.70;78.80;;;;;;5100820;27;20616;-78
2022/04/22 09:19:51;;;;;;;6.53;3.35;;;18.90;77.90;;;;;;5095277;28;20226;-78
2022/04/22 09:22:19;;;;;;;5.20;3.17;;;19.10;77.30;;;;;;5102332;28;20321;-79
2022/04/22 09:24:48;;;;;;;5.97;3.50;;;19.20;75.40;;;;;;5102245;27;20323;-79
2022/04/22 09:27:15;;;;;;;5.65;3.60;;;19.30;76.10;;;;;;5103036;28;20312;-79
2022/04/22 09:29:50;;;;;;;5.68;3.42;;;19.30;74.70;;;;;;5104667;28;20320;-79
2022/04/22 09:32:23;;;;;;;6.55;3.40;;;19.20;74.90;;;;;;5090903;28;20367;-78
2022/04/22 09:34:49;;;;;;;6.32;3.22;;;19.20;74.60;;;;;;5100942;28;20699;-79
2022/04/22 09:42:47;;;;;;;6.80;2.95;;;18.70;74.50;;;;;;5084460;28;20506;-79
2022/04/22 09:45:15;;;;;;;6.07;2.83;;;18.50;74.50;;;;;;5106042;28;20356;-78
2022/04/22 09:47:42;;;;;;;6.97;3.70;;;18.30;75.40;;;;;;5106370;28;20260;-78
2022/04/22 09:50:11;;;;;;;7.73;3.60;;;18.10;75.00;;;;;;5104728;28;20257;-79
2022/04/22 09:52:43;;;;;;;5.77;4.23;;;17.80;75.30;;;;;;5100803;28;20912;-78
2022/04/22 09:55:13;;;;;;;6.97;3.97;;;17.60;74.70;;;;;;5107605;28;20275;-78
2022/04/22 09:57:54;;;;;;;6.80;3.73;;;17.40;75.20;;;;;;5108902;28;20250;-78
2022/04/22 10:00:23;;;;;;;5.63;3.40;;;17.10;75.10;;;;;;5106516;27;20831;-78
2022/04/22 10:02:51;;;;;;;7.30;4.37;;;16.80;75.50;;;;;;5106091;28;20218;-78
2022/04/22 10:05:20;;;;;;;6.70;3.80;;;16.70;76.90;;;;;;5102544;28;20651;-78
2022/04/22 10:07:51;;;;;;;8.87;4.13;;;16.60;76.60;;;;;;5107819;28;20233;-79
2022/04/22 10:10:19;;;;;;;7.07;3.60;;;16.50;76.80;;;;;;5103860;28;20709;-78
2022/04/22 10:12:49;;;;;;;6.23;3.60;;;16.60;76.60;;;;;;5106174;28;20612;-78
2022/04/22 10:15:19;;;;;;;6.90;3.80;;;16.60;76.40;;;;;;5104946;28;20226;-78
2022/04/22 10:17:48;;;;;;;6.87;4.00;;;16.50;76.50;;;;;;5102613;28;20225;-78
2022/04/22 10:20:15;;;;;;;6.27;3.80;;;16.40;75.60;;;;;;5108461;28;20645;-78
2022/04/22 10:22:42;;;;;;;8.87;3.80;;;16.40;76.90;;;;;;5107351;28;20234;-78
2022/04/22 10:25:10;;;;;;;6.73;4.20;;;16.30;76.90;;;;;;5106664;28;20225;-78
2022/04/22 10:27:37;;;;;;;5.73;3.67;;;16.40;76.70;;;;;;5107375;28;20218;-78
2022/04/22 10:30:06;;;;;;;6.03;3.50;;;16.40;77.20;;;;;;5107646;27;20326;-79
2022/04/22 10:32:33;;;;;;;5.47;3.47;;;16.50;77.60;;;;;;5106916;28;20570;-79
2022/04/22 10:35:03;;;;;;;6.57;3.60;;;16.60;77.90;;;;;;5105631;27;20222;-78
2022/04/22 10:37:32;;;;;;;8.20;4.10;;;16.70;77.60;;;;;;5107072;28;20799;-78
2022/04/22 10:39:59;;;;;;;7.27;4.63;;;16.70;76.60;;;;;;5104847;28;20218;-78
2022/04/22 10:42:34;;;;;;;5.27;3.37;;;16.70;76.10;;;;;;5107188;27;20222;-78
2022/04/22 10:47:48;;;;;;;7.10;4.30;;;16.30;75.60;;;;;;5106407;27;20226;-78
2022/04/22 10:50:31;;;;;;;5.40;3.90;;;16.30;76.20;;;;;;5103300;28;20290;-79
2022/04/22 10:53:05;;;;;;;9.00;3.83;;;16.10;76.50;;;;;;5106359;27;20297;-78
2022/04/22 10:55:34;;;;;;;8.57;3.87;;;15.90;77.10;;;;;;5105379;27;20237;-78
2022/04/22 10:58:20;;;;;;;10.27;3.97;;;15.90;78.40;;;;;;5099556;28;20706;-79
2022/04/22 11:00:48;;;;;;;6.50;4.27;;;15.90;78.10;;;;;;5099862;28;20371;-79
2022/04/22 11:03:18;;;;;;;9.53;5.30;;;15.90;78.50;;;;;;5100246;28;20237;-79
2022/04/22 11:05:49;;;;;;;7.37;4.37;;;15.90;77.80;;;;;;5101749;28;20230;-79
2022/04/22 11:08:25;;;;;;;7.87;4.40;;;15.80;76.60;;;;;;5105976;27;20598;-78
2022/04/22 11:11:13;;;;;;;8.33;3.60;;;15.70;76.90;;;;;;5103131;28;20229;-78
2022/04/22 11:13:42;;;;;;;8.30;4.30;;;15.50;77.30;;;;;;5097931;28;20302;-78
2022/04/22 11:16:13;;;;;;;8.40;4.57;;;15.30;77.40;;;;;;5103762;28;20622;-78
2022/04/22 11:18:41;;;;;;;7.17;4.60;;;15.20;77.40;;;;;;5107262;27;20665;-78
2022/04/22 11:21:16;;;;;;;8.17;4.13;;;15.00;78.30;;;;;;5104214;28;20313;-79
2022/04/22 11:23:45;;;;;;;7.20;3.93;;;14.80;78.40;;;;;;5093620;28;20238;-79
2022/04/22 11:26:13;;;;;;;11.20;4.50;;;14.70;79.00;;;;;;5105093;28;20229;-78
2022/04/22 11:28:42;;;;;;;8.70;4.23;;;14.60;79.70;;;;;;5105830;27;20703;-78
2022/04/22 11:31:10;;;;;;;8.57;3.83;;;14.60;80.30;;;;;;5103071;28;20233;-79
2022/04/22 11:33:50;;;;;;;10.13;4.07;;;14.70;81.30;;;;;;5099306;27;20230;-78
2022/04/22 11:36:18;;;;;;;6.83;3.97;;;14.90;81.80;;;;;;5106450;28;20235;-78
2022/04/22 11:38:49;;;;;;;9.97;3.97;;;15.20;80.70;;;;;;5099688;27;20229;-79
2022/04/22 11:41:17;;;;;;;6.07;4.03;;;15.50;81.40;;;;;;5099565;28;20286;-77
2022/04/22 11:43:44;;;;;;;9.43;4.27;;;15.80;81.70;;;;;;5106889;28;20312;-78
2022/04/22 11:46:12;;;;;;;6.03;3.87;;;16.30;80.70;;;;;;5106699;28;20290;-78
2022/04/22 11:48:50;;;;;;;6.53;4.17;;;16.50;80.10;;;;;;5100016;28;20287;-78
2022/04/22 11:51:19;;;;;;;8.23;3.97;;;16.80;78.20;;;;;;5105260;28;20328;-78
2022/04/22 11:53:48;;;;;;;8.47;3.97;;;17.10;78.70;;;;;;5104829;28;20717;-78
2022/04/22 11:56:19;;;;;;;7.17;4.30;;;17.30;78.80;;;;;;5105607;28;20557;-79
2022/04/22 11:58:47;;;;;;;5.95;3.60;;;17.60;78.30;;;;;;5095346;28;20230;-78
2022/04/22 12:06:45;;;;;;;6.10;3.63;;;18.40;75.00;;;;;;5101323;28;20687;-78
2022/04/22 12:09:12;;;;;;;5.60;3.33;;;18.60;74.20;;;;;;5100247;28;20745;-78
2022/04/22 12:11:41;;;;;;;7.38;3.90;;;18.70;74.90;;;;;;5097552;28;20488;-78
2022/04/22 12:14:09;;;;;;;6.70;3.53;;;18.80;73.70;;;;;;5099682;27;20233;-78
2022/04/22 12:16:35;;;;;;;8.20;4.80;;;18.90;74.10;;;;;;5095206;28;20648;-79
2022/04/22 12:19:03;;;;;;;5.63;3.70;;;18.80;72.70;;;;;;5106164;27;20226;-78
2022/04/22 12:21:33;;;;;;;9.13;4.47;;;18.70;72.70;;;;;;5104015;27;20244;-79
2022/04/22 12:24:03;;;;;;;6.07;3.97;;;18.60;73.00;;;;;;5097222;28;20358;-78
2022/04/22 12:26:32;;;;;;;8.50;4.17;;;18.50;73.40;;;;;;5103794;28;20241;-78
2022/04/22 12:29:00;;;;;;;9.38;4.05;;;18.40;73.50;;;;;;5099093;28;20234;-78
2022/04/22 12:31:29;;;;;;;10.18;4.45;;;18.40;74.50;;;;;;5095817;28;20230;-78
2022/04/22 12:34:00;;;;;;;9.53;4.50;;;18.30;73.90;;;;;;5097818;28;20259;-78
2022/04/22 12:36:28;;;;;;;11.10;4.30;;;18.10;73.40;;;;;;5102035;28;20334;-79
2022/04/22 12:38:55;;;;;;;8.43;5.00;;;17.90;74.00;;;;;;5097591;28;20234;-79
2022/04/22 12:41:23;;;;;;;9.15;4.68;;;17.60;74.50;;;;;;5093497;28;20218;-79
2022/04/22 12:43:51;;;;;;;6.93;4.07;;;17.40;75.40;;;;;;5107185;28;20218;-78
2022/04/22 12:52:11;;;;;;;7.70;3.83;;;17.70;77.50;;;;;;5094971;28;20651;-79
2022/04/22 12:54:39;;;;;;;7.68;4.53;;;18.10;77.20;;;;;;5101285;27;20366;-79
2022/04/22 12:57:11;;;;;;;8.23;4.20;;;18.40;75.70;;;;;;5105851;28;20221;-78
2022/04/22 12:59:43;;;;;;;6.20;4.32;;;18.50;74.60;;;;;;5103398;28;20226;-79
2022/04/22 13:02:11;;;;;;;7.32;4.20;;;18.60;74.80;;;;;;5100548;28;20313;-78
2022/04/22 13:04:55;;;;;;;8.00;4.45;;;18.60;74.80;;;;;;5096581;28;20286;-78
2022/04/22 13:07:23;;;;;;;6.40;4.30;;;18.60;74.30;;;;;;5097385;28;20250;-79
2022/04/22 13:09:50;;;;;;;9.23;4.82;;;18.60;73.80;;;;;;5101290;28;20223;-79
2022/04/22 13:12:18;;;;;;;8.33;4.50;;;18.50;73.60;;;;;;5099466;28;20742;-78
2022/04/22 13:14:46;;;;;;;7.85;4.10;;;18.50;74.10;;;;;;5109327;28;20587;-78
2022/04/22 13:17:24;;;;;;;8.63;4.05;;;18.40;73.80;;;;;;5099973;28;20231;-79
2022/04/22 13:19:52;;;;;;;5.77;3.57;;;18.40;73.80;;;;;;5096307;28;20225;-79
2022/04/22 13:22:19;;;;;;;6.13;3.53;;;18.40;74.50;;;;;;5105206;28;20279;-79
2022/04/22 13:24:46;;;;;;;9.90;4.10;;;18.40;74.60;;;;;;5108554;27;20221;-79
2022/04/22 13:27:14;;;;;;;9.15;4.15;;;18.60;74.50;;;;;;5104188;27;20302;-79
2022/04/22 13:29:42;;;;;;;7.18;4.00;;;18.80;73.90;;;;;;5100793;28;20222;-79
2022/04/22 13:32:10;;;;;;;6.70;3.70;;;18.90;73.80;;;;;;5104710;28;20320;-79
2022/04/22 13:34:37;;;;;;;8.60;3.67;;;19.10;72.00;;;;;;5106799;27;20225;-79
2022/04/22 13:37:04;;;;;;;7.03;3.85;;;19.20;70.80;;;;;;5108302;28;20218;-79
2022/04/22 13:39:31;;;;;;;9.00;3.70;;;19.30;71.90;;;;;;5106565;28;20236;-79
2022/04/22 13:41:58;;;;;;;6.18;3.53;;;19.30;70.90;;;;;;5102476;28;20218;-79
2022/04/22 13:52:39;;;;;;;7.03;3.70;;;19.30;70.70;;;;;;5098836;28;20253;-79
2022/04/22 13:55:06;;;;;;;7.90;3.72;;;19.30;70.70;;;;;;5105160;28;20252;-79
2022/04/22 13:57:32;;;;;;;7.82;3.70;;;19.20;70.20;;;;;;5105342;27;20230;-79
2022/04/22 13:59:59;;;;;;;7.28;4.03;;;19.10;70.80;;;;;;5108100;28;20218;-79
2022/04/22 14:02:27;;;;;;;7.15;4.07;;;19.10;70.50;;;;;;5098971;27;20218;-79